Time;durP1;ratioP1;P1;durP2;ratioP2;P2;SDS_P1;SDS_P2;PMS_P1;PMS_P2;Temp;Humidity;BMP_temperature;BMP_pressure;BME280_temperature;BME280_humidity;BME280_pressure;Samples;Min_cycle;Max_cycle;Signal;HPM_P1;HPM_P2
2022/12/31 00:01:44;;;;;;;3.28;2.22;;;;;;;11.53;84.66;99307.38;10398224;28;20084;-77
2022/12/31 00:06:48;;;;;;;2.95;1.60;;;;;;;11.63;84.62;99305.44;10398280;28;20103;-77
2022/12/31 00:11:51;;;;;;;1.42;1.33;;;;;;;11.60;85.17;99316.50;10389533;28;20069;-77
2022/12/31 00:16:54;;;;;;;2.63;1.38;;;;;;;11.44;85.29;99319.94;10390273;28;20136;-76
2022/12/31 00:21:58;;;;;;;1.42;1.33;;;;;;;11.45;85.45;99325.13;10387149;28;20051;-77
2022/12/31 00:27:01;;;;;;;1.95;1.42;;;;;;;11.03;91.05;99319.53;10395208;28;20050;-77
2022/12/31 00:32:04;;;;;;;2.38;1.98;;;;;;;10.95;93.00;99327.50;10400730;28;20124;-76
2022/12/31 00:37:08;;;;;;;1.70;1.60;;;;;;;11.05;93.31;99317.50;10395533;28;20564;-76
2022/12/31 00:42:11;;;;;;;1.92;1.50;;;;;;;10.64;95.49;99327.84;10392631;28;20049;-76
2022/12/31 00:47:13;;;;;;;;;;;;;;;11.03;93.55;99323.06;10405139;28;20060;-78
2022/12/31 00:52:17;;;;;;;1.10;1.00;;;;;;;11.06;93.22;99322.75;10385150;28;20012;-78
2022/12/31 00:57:20;;;;;;;1.65;1.55;;;;;;;11.01;93.30;99327.72;10405198;28;20041;-78
2022/12/31 01:02:23;;;;;;;1.30;1.25;;;;;;;10.93;93.55;99316.06;10402787;28;20738;-78
2022/12/31 01:07:28;;;;;;;2.20;2.10;;;;;;;11.17;92.73;99305.56;10405086;28;20038;-77
2022/12/31 01:12:30;;;;;;;3.72;1.77;;;;;;;11.13;92.73;99296.13;10406533;28;20120;-78
2022/12/31 01:17:34;;;;;;;1.70;1.58;;;;;;;11.12;93.00;99304.31;10394770;28;20454;-78
2022/12/31 01:22:38;;;;;;;0.90;0.90;;;;;;;11.16;92.44;99319.16;10396712;28;20487;-77
2022/12/31 01:27:41;;;;;;;1.10;1.00;;;;;;;11.28;92.53;99316.09;10402784;28;20041;-78
2022/12/31 01:32:44;;;;;;;1.42;1.33;;;;;;;11.25;91.31;99302.97;10404589;28;20053;-77
2022/12/31 01:37:48;;;;;;;2.30;1.50;;;;;;;11.22;91.48;99307.81;10426559;28;20050;-80
2022/12/31 01:42:55;;;;;;;1.75;1.65;;;;;;;11.27;90.94;99309.03;10404431;28;20049;-80
2022/12/31 01:47:59;;;;;;;1.90;1.58;;;;;;;11.21;90.84;99301.56;10421695;28;20076;-78
2022/12/31 01:53:05;;;;;;;2.08;1.70;;;;;;;10.93;92.80;99308.00;10399937;28;20492;-80
2022/12/31 01:58:11;;;;;;;1.63;0.80;;;;;;;11.09;92.17;99310.00;10403501;28;20049;-80
2022/12/31 02:03:14;;;;;;;1.48;0.77;;;;;;;10.90;94.02;99289.50;10385378;28;20057;-80
2022/12/31 02:08:19;;;;;;;0.50;0.50;;;;;;;10.85;95.20;99300.69;10409820;28;20129;-77
2022/12/31 02:13:22;;;;;;;0.35;0.35;;;;;;;10.49;97.40;99303.34;10397228;28;20076;-76
2022/12/31 02:18:33;;;;;;;0.60;0.60;;;;;;;10.56;98.98;99284.81;10403358;28;20046;-77
2022/12/31 02:23:55;;;;;;;2.83;0.73;;;;;;;10.80;96.70;99263.53;10384425;28;20049;-78
2022/12/31 02:29:20;;;;;;;0.47;0.47;;;;;;;10.74;97.54;99257.94;10391613;28;20048;-78
2022/12/31 02:34:31;;;;;;;1.80;0.77;;;;;;;10.92;95.38;99241.84;10403428;28;20056;-78
2022/12/31 02:39:36;;;;;;;0.95;0.50;;;;;;;11.02;95.40;99240.72;10407102;28;20130;-78
2022/12/31 02:44:40;;;;;;;0.50;0.50;;;;;;;10.90;96.50;99228.56;10397087;28;20041;-77
2022/12/31 02:49:58;;;;;;;1.15;0.32;;;;;;;10.97;96.90;99235.00;10392007;28;20041;-78
2022/12/31 02:55:09;;;;;;;1.88;0.50;;;;;;;10.87;98.27;99210.06;10406410;28;20041;-79
2022/12/31 03:05:41;;;;;;;1.75;0.50;;;;;;;11.01;96.88;99214.03;10398356;28;20446;-78
2022/12/31 03:10:44;;;;;;;0.80;0.60;;;;;;;11.01;97.44;99197.91;10392398;28;20048;-79
2022/12/31 03:15:47;;;;;;;0.63;0.63;;;;;;;11.18;97.48;99188.16;10378273;28;20046;-79
2022/12/31 03:26:12;;;;;;;0.35;0.30;;;;;;;11.24;96.69;99166.88;10408778;28;20052;-80
2022/12/31 03:31:15;;;;;;;0.65;0.30;;;;;;;11.16;97.46;99177.56;10393710;28;20060;-77
2022/12/31 03:36:20;;;;;;;0.20;0.20;;;;;;;11.25;97.51;99179.31;10418841;28;20042;-80
2022/12/31 03:41:22;;;;;;;0.15;0.15;;;;;;;11.19;98.87;99179.94;10383450;28;20052;-80
2022/12/31 03:46:25;;;;;;;0.20;0.20;;;;;;;11.22;98.12;99181.47;10386356;28;20052;-77
2022/12/31 03:51:29;;;;;;;0.08;0.08;;;;;;;11.61;95.66;99163.03;10407975;28;20037;-80
2022/12/31 03:56:32;;;;;;;0.40;0.20;;;;;;;11.54;95.75;99153.91;10408280;28;20104;-80
2022/12/31 04:01:35;;;;;;;0.10;0.10;;;;;;;11.54;94.77;99191.56;10390620;28;20100;-80
2022/12/31 04:06:40;;;;;;;0.22;0.20;;;;;;;12.00;92.90;99181.34;10413624;28;20049;-79
2022/12/31 04:11:43;;;;;;;0.13;0.13;;;;;;;11.69;95.83;99219.56;10404148;28;20050;-79
2022/12/31 04:16:46;;;;;;;18.88;1.77;;;;;;;11.03;100.00;99271.16;10391912;28;20082;-79
2022/12/31 04:21:50;;;;;;;0.52;0.30;;;;;;;10.66;100.00;99261.38;10419616;28;20155;-79
2022/12/31 04:26:53;;;;;;;0.10;0.10;;;;;;;10.56;100.00;99272.22;10397919;28;20108;-79
2022/12/31 04:31:56;;;;;;;0.22;0.05;;;;;;;10.88;100.00;99252.03;10405916;28;20406;-80
2022/12/31 04:37:00;;;;;;;0.28;0.10;;;;;;;10.88;100.00;99275.38;10403314;28;20057;-79
2022/12/31 04:42:03;;;;;;;0.52;0.10;;;;;;;10.99;99.83;99283.19;10392382;28;20053;-79
2022/12/31 04:47:06;;;;;;;0.10;0.10;;;;;;;11.21;98.77;99269.31;10403189;28;20049;-80
2022/12/31 04:52:10;;;;;;;0.20;0.20;;;;;;;11.16;98.32;99294.97;10411122;28;20144;-80
2022/12/31 04:57:13;;;;;;;0.70;0.10;;;;;;;10.98;98.83;99305.69;10388837;28;20125;-80
2022/12/31 05:02:16;;;;;;;0.00;0.00;;;;;;;10.92;98.81;99279.47;10381057;28;20156;-80
2022/12/31 05:07:20;;;;;;;0.57;0.30;;;;;;;11.06;97.92;99273.53;10415435;28;20077;-80
2022/12/31 05:12:23;;;;;;;0.28;0.28;;;;;;;11.15;97.11;99277.16;10388420;28;20060;-81
2022/12/31 05:17:26;;;;;;;0.43;0.20;;;;;;;11.22;97.08;99280.94;10382005;28;20111;-80
2022/12/31 05:22:30;;;;;;;0.88;0.20;;;;;;;11.24;96.96;99279.78;10382362;28;20072;-82
2022/12/31 05:27:33;;;;;;;0.22;0.22;;;;;;;11.25;97.14;99277.94;10388164;28;20060;-81
2022/12/31 05:32:36;;;;;;;0.60;0.30;;;;;;;11.17;97.72;99269.78;10379408;28;20042;-80
2022/12/31 05:37:40;;;;;;;0.30;0.13;;;;;;;11.14;97.66;99265.56;10387096;28;20061;-80
2022/12/31 05:42:44;;;;;;;0.25;0.25;;;;;;;11.29;98.05;99268.53;10378694;28;20072;-80
2022/12/31 05:47:46;;;;;;;0.40;0.30;;;;;;;11.33;97.32;99271.78;10381214;28;20053;-79
2022/12/31 05:52:52;;;;;;;2.38;0.52;;;;;;;11.42;97.64;99260.91;10380559;28;20034;-81
2022/12/31 05:57:55;;;;;;;0.82;0.50;;;;;;;11.33;98.98;99264.56;10380333;28;20734;-81
2022/12/31 06:02:58;;;;;;;0.60;0.50;;;;;;;11.41;99.14;99261.06;10380484;28;20096;-80
2022/12/31 06:08:02;;;;;;;1.13;0.30;;;;;;;11.39;100.00;99252.31;10382776;28;20049;-80
2022/12/31 06:13:05;;;;;;;1.67;0.90;;;;;;;11.46;100.00;99250.69;10390606;28;20045;-81
2022/12/31 06:18:10;;;;;;;1.15;0.90;;;;;;;11.30;100.00;99231.75;10403313;28;20391;-79
2022/12/31 06:23:14;;;;;;;2.72;0.80;;;;;;;11.81;100.00;99216.59;10408265;28;20065;-80
2022/12/31 06:28:17;;;;;;;0.60;0.60;;;;;;;11.68;100.00;99217.91;10397397;28;20046;-78
2022/12/31 06:33:22;;;;;;;1.90;0.43;;;;;;;11.62;100.00;99209.59;10398912;28;20530;-79
2022/12/31 06:38:28;;;;;;;0.30;0.30;;;;;;;11.91;100.00;99218.16;10422478;28;20053;-78
2022/12/31 06:43:30;;;;;;;0.20;0.20;;;;;;;12.00;100.00;99228.97;10416502;28;20042;-78
2022/12/31 06:48:33;;;;;;;0.82;0.25;;;;;;;12.11;98.87;99205.28;10388956;28;20049;-80
2022/12/31 06:53:38;;;;;;;0.30;0.20;;;;;;;12.34;98.42;99219.03;10412778;28;20104;-79
2022/12/31 06:58:41;;;;;;;1.45;0.40;;;;;;;12.32;96.44;99261.44;10409148;28;20076;-80
2022/12/31 07:03:54;;;;;;;0.45;0.10;;;;;;;12.43;94.78;99259.44;10396370;28;20046;-79
2022/12/31 07:09:05;;;;;;;0.50;0.40;;;;;;;12.89;93.74;99249.94;10395097;28;20177;-79
2022/12/31 07:14:20;;;;;;;0.82;0.30;;;;;;;12.89;91.91;99305.69;10410882;28;20037;-80
2022/12/31 07:19:35;;;;;;;0.20;0.20;;;;;;;12.83;92.13;99293.72;10411098;28;20057;-79
2022/12/31 07:24:40;;;;;;;0.55;0.30;;;;;;;12.50;92.98;99303.56;10392815;28;20092;-79
2022/12/31 07:29:59;;;;;;;0.30;0.22;;;;;;;12.82;92.68;99300.13;10415468;28;20045;-79
2022/12/31 07:35:12;;;;;;;4.05;0.43;;;;;;;12.50;92.55;99322.41;10399742;28;20447;-80
2022/12/31 07:40:22;;;;;;;0.28;0.28;;;;;;;12.52;92.50;99318.56;10393635;28;20545;-80
2022/12/31 07:45:32;;;;;;;1.60;0.30;;;;;;;12.77;90.21;99332.09;10387809;28;20061;-80
2022/12/31 07:50:35;;;;;;;0.98;0.40;;;;;;;12.80;90.67;99340.69;10388725;28;20042;-79
2022/12/31 07:55:39;;;;;;;2.03;0.35;;;;;;;12.95;90.41;99351.69;10400914;28;20069;-80
2022/12/31 08:00:42;;;;;;;1.35;0.70;;;;;;;12.75;91.75;99359.22;10408150;28;20065;-78
2022/12/31 08:05:53;;;;;;;2.67;0.52;;;;;;;12.75;91.92;99367.31;10387284;28;20488;-79
2022/12/31 08:11:06;;;;;;;4.30;0.57;;;;;;;12.58;94.17;99361.00;10377789;28;20038;-79
2022/12/31 08:16:12;;;;;;;1.75;0.80;;;;;;;12.96;91.31;99360.63;10392117;28;20102;-78
2022/12/31 08:21:25;;;;;;;3.95;0.52;;;;;;;12.85;90.28;99375.25;10386855;28;20052;-79
2022/12/31 08:26:44;;;;;;;1.05;0.43;;;;;;;12.98;86.93;99355.91;10381757;28;20494;-79
2022/12/31 08:31:59;;;;;;;0.95;0.38;;;;;;;13.41;82.39;99357.53;10406440;28;20041;-79
2022/12/31 08:37:08;;;;;;;0.98;0.47;;;;;;;13.65;80.94;99366.63;10401998;28;20045;-79
2022/12/31 08:42:21;;;;;;;1.60;0.38;;;;;;;13.86;80.43;99401.22;10409172;28;20065;-79
2022/12/31 08:47:37;;;;;;;1.52;0.40;;;;;;;13.98;79.04;99369.31;10407342;28;20046;-78
2022/12/31 08:52:41;;;;;;;1.77;0.60;;;;;;;14.04;77.05;99352.41;10385904;28;20053;-79
2022/12/31 08:57:55;;;;;;;0.95;0.40;;;;;;;14.25;76.06;99357.25;10393613;28;20052;-79
2022/12/31 09:03:15;;;;;;;1.10;0.30;;;;;;;14.51;74.89;99379.50;10396010;28;20058;-76
2022/12/31 09:08:28;;;;;;;4.07;0.57;;;;;;;14.70;74.17;99374.69;10411731;28;20050;-78
2022/12/31 09:13:41;;;;;;;1.55;0.20;;;;;;;14.48;74.31;99365.47;10416585;28;20049;-78
2022/12/31 09:18:44;;;;;;;0.75;0.30;;;;;;;14.48;72.48;99408.72;10403968;28;20096;-78
2022/12/31 09:23:47;;;;;;;1.20;0.32;;;;;;;14.99;71.88;99383.00;10416120;28;20380;-78
2022/12/31 09:29:02;;;;;;;2.03;0.57;;;;;;;15.11;71.25;99380.75;10411437;28;20125;-78
2022/12/31 09:34:12;;;;;;;2.90;0.40;;;;;;;14.93;70.61;99369.34;10413391;28;20092;-77
2022/12/31 09:39:22;;;;;;;3.92;0.75;;;;;;;15.05;69.48;99417.44;10438158;28;20041;-76
2022/12/31 09:45:05;;;;;;;6.10;0.32;;;;;;;15.00;69.76;99413.59;10457688;28;20033;-76
2022/12/31 09:50:40;;;;;;;2.33;0.17;;;;;;;15.17;68.26;99403.53;10456811;28;20034;-76
2022/12/31 09:55:48;;;;;;;1.02;0.40;;;;;;;15.30;67.94;99389.41;10471838;28;20040;-76
2022/12/31 10:01:00;;;;;;;1.10;0.30;;;;;;;15.06;68.34;99410.19;10459940;28;20366;-76
2022/12/31 10:06:16;;;;;;;2.70;0.57;;;;;;;15.28;67.57;99403.13;10455047;28;20045;-77
2022/12/31 10:11:27;;;;;;;1.35;0.70;;;;;;;15.39;66.79;99396.50;10440004;28;20033;-77
2022/12/31 10:16:51;;;;;;;0.50;0.30;;;;;;;15.41;66.15;99399.84;10405220;28;20134;-77
2022/12/31 10:22:08;;;;;;;1.85;0.20;;;;;;;15.49;65.31;99429.56;10404243;28;20049;-77
2022/12/31 10:27:21;;;;;;;1.42;0.50;;;;;;;15.39;65.83;99421.69;10386086;28;20073;-77
2022/12/31 10:32:43;;;;;;;0.80;0.40;;;;;;;15.18;66.46;99462.84;10409154;28;20101;-77
2022/12/31 10:37:56;;;;;;;1.67;0.33;;;;;;;15.20;66.97;99501.41;10401688;28;20033;-77
2022/12/31 10:43:31;;;;;;;1.42;0.60;;;;;;;15.00;68.49;99479.34;10411791;28;20088;-77
2022/12/31 10:48:57;;;;;;;0.50;0.32;;;;;;;14.06;74.74;99523.19;10401364;28;20050;-77
2022/12/31 10:54:48;;;;;;;1.95;0.50;;;;;;;14.33;74.36;99549.03;10410317;28;20080;-77
2022/12/31 11:00:13;;;;;;;1.05;0.20;;;;;;;14.50;72.39;99521.00;10332902;28;20081;-76
2022/12/31 11:05:49;;;;;;;1.05;0.55;;;;;;;14.78;72.04;99528.72;10422363;28;20411;-76
2022/12/31 11:11:19;;;;;;;1.10;0.80;;;;;;;14.91;70.64;99533.63;10405521;28;20072;-77
2022/12/31 11:16:43;;;;;;;5.25;0.70;;;;;;;14.85;70.69;99540.56;10401299;28;20037;-77
2022/12/31 11:22:20;;;;;;;2.10;0.43;;;;;;;14.52;72.10;99513.59;10398789;28;20125;-76
2022/12/31 11:27:38;;;;;;;1.08;0.32;;;;;;;13.91;78.67;99525.72;10397715;28;20112;-77
2022/12/31 11:32:55;;;;;;;1.63;0.70;;;;;;;13.92;77.91;99512.03;10388161;28;20535;-77
2022/12/31 11:38:09;;;;;;;1.95;0.70;;;;;;;14.36;74.78;99522.50;10392964;28;20049;-77
2022/12/31 11:43:23;;;;;;;3.38;0.82;;;;;;;14.68;72.97;99536.22;10382106;28;20117;-77
2022/12/31 11:48:32;;;;;;;1.75;0.50;;;;;;;15.21;70.16;99499.53;10398754;28;20519;-77
2022/12/31 11:53:56;;;;;;;1.00;0.50;;;;;;;15.36;69.28;99499.66;10386132;28;20050;-77
2022/12/31 11:59:00;;;;;;;1.20;0.57;;;;;;;15.91;66.28;99504.91;10389940;28;20048;-78
2022/12/31 12:04:11;;;;;;;2.43;0.70;;;;;;;16.24;65.13;99515.50;10382560;28;20498;-76
2022/12/31 12:09:21;;;;;;;1.40;0.45;;;;;;;15.72;65.54;99499.13;10379331;28;20113;-77
2022/12/31 12:14:32;;;;;;;2.25;0.57;;;;;;;16.05;64.84;99489.75;10411470;28;20503;-78
2022/12/31 12:19:41;;;;;;;2.33;0.52;;;;;;;15.75;65.70;99491.50;10401626;28;20494;-76
2022/12/31 12:24:54;;;;;;;6.25;0.70;;;;;;;15.62;65.86;99518.28;10408089;28;20101;-77
2022/12/31 12:29:58;;;;;;;2.25;0.70;;;;;;;15.72;65.25;99516.22;10430813;28;20039;-78
2022/12/31 12:35:00;;;;;;;4.03;0.60;;;;;;;15.57;66.07;99505.28;10405646;28;20050;-77
2022/12/31 12:40:08;;;;;;;2.60;0.50;;;;;;;15.57;65.57;99528.81;10412520;28;20124;-77
2022/12/31 12:45:16;;;;;;;3.22;0.50;;;;;;;15.57;66.44;99507.16;10401788;28;20095;-78
2022/12/31 12:50:24;;;;;;;0.90;0.40;;;;;;;15.61;66.66;99513.91;10417427;28;20054;-77
2022/12/31 12:55:36;;;;;;;2.75;0.40;;;;;;;15.46;66.15;99520.06;10402594;28;20064;-77
2022/12/31 13:00:46;;;;;;;3.65;0.52;;;;;;;15.67;66.05;99507.78;10409444;28;20641;-77
2022/12/31 13:06:06;;;;;;;3.92;0.75;;;;;;;15.65;65.17;99509.81;10404127;28;20034;-76
2022/12/31 13:11:28;;;;;;;7.55;0.63;;;;;;;15.74;64.64;99505.19;10408272;28;20069;-76
2022/12/31 13:16:36;;;;;;;3.42;0.85;;;;;;;16.13;63.32;99497.81;10411550;28;20041;-76
2022/12/31 13:21:49;;;;;;;4.28;0.77;;;;;;;15.79;64.02;99494.66;10403932;28;20037;-78
2022/12/31 13:27:00;;;;;;;4.00;0.88;;;;;;;15.97;63.54;99516.06;10385252;28;20038;-78
2022/12/31 13:32:07;;;;;;;0.80;0.75;;;;;;;15.79;63.81;99498.22;10367439;28;20050;-77
2022/12/31 13:37:22;;;;;;;2.80;0.50;;;;;;;15.76;63.76;99506.69;10361830;28;20400;-75
2022/12/31 13:42:32;;;;;;;5.05;0.52;;;;;;;15.55;64.70;99530.84;10360469;28;20124;-77
2022/12/31 13:47:40;;;;;;;1.75;0.60;;;;;;;15.46;64.20;99565.22;10348514;28;20049;-77
2022/12/31 13:52:48;;;;;;;3.50;0.60;;;;;;;15.41;66.36;99554.97;10346218;28;20050;-77
2022/12/31 13:57:56;;;;;;;2.25;1.17;;;;;;;14.78;70.44;99555.75;10356767;28;20052;-76
2022/12/31 14:03:08;;;;;;;2.35;0.60;;;;;;;14.22;76.03;99570.97;10347660;28;20054;-77
2022/12/31 14:08:11;;;;;;;1.17;0.90;;;;;;;13.81;77.16;99543.91;10371964;28;20045;-78
2022/12/31 14:13:40;;;;;;;3.75;0.90;;;;;;;13.94;76.44;99565.88;10356413;28;20053;-78
2022/12/31 14:18:48;;;;;;;2.70;0.85;;;;;;;14.68;73.17;99561.38;10344162;28;20478;-78
2022/12/31 14:24:01;;;;;;;1.85;0.75;;;;;;;14.57;73.62;99551.75;10367698;28;20046;-77
2022/12/31 14:29:20;;;;;;;6.28;0.68;;;;;;;14.50;72.98;99585.03;10353094;28;20059;-77
2022/12/31 14:34:36;;;;;;;2.20;0.75;;;;;;;14.94;71.67;99599.00;10357804;28;20053;-76
2022/12/31 14:39:50;;;;;;;2.90;0.95;;;;;;;14.60;72.11;99621.69;10338447;28;20054;-77
2022/12/31 14:45:04;;;;;;;2.03;0.63;;;;;;;14.79;72.70;99600.72;10344962;28;21267;-78
2022/12/31 14:50:12;;;;;;;1.42;0.90;;;;;;;14.59;73.78;99602.94;10359682;28;20061;-76
2022/12/31 14:55:25;;;;;;;2.08;0.88;;;;;;;14.51;73.78;99603.78;10348132;28;20050;-77
2022/12/31 15:00:33;;;;;;;3.70;0.80;;;;;;;14.33;74.50;99620.09;10356410;28;20042;-77
2022/12/31 15:05:37;;;;;;;3.22;1.00;;;;;;;14.22;75.72;99614.19;10355998;28;20072;-77
2022/12/31 15:10:52;;;;;;;4.25;1.38;;;;;;;14.01;78.51;99609.25;10352107;28;20046;-77
2022/12/31 15:16:18;;;;;;;3.60;1.20;;;;;;;13.71;78.76;99612.41;10352040;28;20045;-76
2022/12/31 15:21:37;;;;;;;2.85;0.90;;;;;;;13.81;77.47;99598.75;10353897;28;20550;-76
2022/12/31 15:26:48;;;;;;;6.25;1.00;;;;;;;13.74;77.81;99608.53;10359210;28;20045;-77
2022/12/31 15:31:53;;;;;;;3.20;1.13;;;;;;;14.09;76.14;99604.72;10347628;28;20072;-77
2022/12/31 15:36:58;;;;;;;5.65;1.27;;;;;;;13.99;74.87;99622.06;10359574;28;20045;-76
2022/12/31 15:42:01;;;;;;;6.10;1.08;;;;;;;14.35;72.63;99623.50;10363129;28;20582;-77
2022/12/31 15:47:29;;;;;;;3.05;1.33;;;;;;;14.29;72.63;99615.19;10349795;28;20691;-76
2022/12/31 15:52:39;;;;;;;4.75;1.17;;;;;;;14.27;71.33;99641.56;10342800;28;20185;-77
2022/12/31 15:57:43;;;;;;;3.67;1.08;;;;;;;14.25;71.25;99632.78;10356265;28;20587;-76
2022/12/31 16:02:50;;;;;;;1.23;0.82;;;;;;;14.22;70.70;99642.03;10331592;28;20601;-77
2022/12/31 16:07:55;;;;;;;3.17;1.10;;;;;;;14.35;69.96;99641.56;10361666;28;20049;-76
2022/12/31 16:12:59;;;;;;;1.60;1.10;;;;;;;14.11;70.23;99647.75;10367496;28;20053;-77
2022/12/31 16:18:06;;;;;;;3.97;1.00;;;;;;;13.94;69.57;99647.72;10346996;28;20046;-76
2022/12/31 16:23:19;;;;;;;3.88;1.23;;;;;;;14.17;68.60;99663.28;10346060;28;20050;-77
2022/12/31 16:28:26;;;;;;;4.70;0.73;;;;;;;14.19;68.58;99669.38;10337560;28;20049;-77
2022/12/31 16:33:31;;;;;;;2.95;1.27;;;;;;;14.26;68.52;99666.84;10365910;28;20092;-76
2022/12/31 16:38:35;;;;;;;4.15;1.20;;;;;;;14.48;68.50;99651.91;10359710;28;20041;-77
2022/12/31 16:43:42;;;;;;;7.75;1.63;;;;;;;14.16;69.60;99670.56;10370510;28;20124;-77
2022/12/31 16:48:48;;;;;;;3.88;1.23;;;;;;;14.27;69.14;99669.41;10351714;28;20426;-77
2022/12/31 16:53:52;;;;;;;5.07;1.08;;;;;;;14.22;69.12;99677.16;10363883;28;20155;-76
2022/12/31 16:59:01;;;;;;;1.58;1.02;;;;;;;14.37;69.42;99663.84;10370686;28;20042;-77
2022/12/31 17:04:11;;;;;;;2.97;1.00;;;;;;;14.31;69.78;99659.94;10370433;28;20161;-76
2022/12/31 17:09:19;;;;;;;3.75;1.10;;;;;;;14.25;69.53;99667.88;10369623;28;20170;-77
2022/12/31 17:14:24;;;;;;;7.25;1.60;;;;;;;14.38;69.43;99641.22;10365594;28;20053;-76
2022/12/31 17:19:36;;;;;;;2.55;1.50;;;;;;;14.36;69.30;99648.66;10362812;28;20053;-78
2022/12/31 17:24:39;;;;;;;2.08;1.48;;;;;;;14.20;69.44;99659.44;10373547;28;20124;-77
2022/12/31 17:29:43;;;;;;;4.18;1.50;;;;;;;14.25;68.57;99647.13;10372242;28;20056;-76
2022/12/31 17:34:49;;;;;;;4.28;1.80;;;;;;;14.17;69.15;99639.00;10363964;28;20054;-77
2022/12/31 17:39:57;;;;;;;2.80;1.35;;;;;;;14.16;67.92;99643.56;10359017;28;20046;-77
2022/12/31 17:45:22;;;;;;;4.25;1.30;;;;;;;14.34;66.43;99620.94;10362008;28;20057;-77
2022/12/31 17:50:27;;;;;;;1.70;1.00;;;;;;;14.27;66.21;99580.28;10368095;28;20053;-77
2022/12/31 17:55:30;;;;;;;2.33;1.10;;;;;;;14.33;65.58;99606.59;10356834;28;20373;-77
2022/12/31 18:00:36;;;;;;;2.22;1.00;;;;;;;14.22;65.16;99598.00;10400664;28;20100;-77
2022/12/31 18:05:40;;;;;;;5.57;1.92;;;;;;;14.41;64.40;99600.41;10369131;28;21004;-78
2022/12/31 18:10:44;;;;;;;3.08;1.17;;;;;;;14.66;62.54;99593.13;10372025;28;20054;-76
2022/12/31 18:15:47;;;;;;;2.90;1.00;;;;;;;14.66;62.49;99579.63;10409005;28;20053;-76
2022/12/31 18:20:53;;;;;;;3.25;1.13;;;;;;;14.69;61.78;99573.03;10369892;28;20051;-77
2022/12/31 18:25:57;;;;;;;4.65;1.33;;;;;;;14.77;61.37;99590.06;10372656;28;20052;-76
2022/12/31 18:30:59;;;;;;;1.77;1.10;;;;;;;14.52;61.74;99596.53;10357401;28;20094;-78
2022/12/31 18:36:10;;;;;;;2.10;1.10;;;;;;;14.88;60.64;99571.81;10360001;28;20053;-79
2022/12/31 18:41:18;;;;;;;0.80;0.70;;;;;;;14.50;61.08;99585.03;10363018;28;20123;-77
2022/12/31 18:46:23;;;;;;;2.33;1.60;;;;;;;14.60;61.06;99605.47;10345888;28;20049;-78
2022/12/31 18:51:28;;;;;;;2.38;1.50;;;;;;;14.52;60.52;99572.19;10354411;28;20041;-77
2022/12/31 18:56:34;;;;;;;4.68;1.77;;;;;;;14.74;59.75;99562.53;10370320;28;20059;-78
2022/12/31 19:01:39;;;;;;;3.90;1.40;;;;;;;14.57;60.32;99562.56;10374092;28;20057;-78
2022/12/31 19:06:43;;;;;;;2.13;1.30;;;;;;;14.52;59.49;99583.84;10360707;28;20053;-78
2022/12/31 19:11:47;;;;;;;3.97;1.05;;;;;;;14.71;58.86;99593.47;10352207;28;20148;-79
2022/12/31 19:16:52;;;;;;;5.68;1.30;;;;;;;14.63;59.22;99590.78;10356836;28;20140;-78
2022/12/31 19:21:56;;;;;;;6.22;1.73;;;;;;;14.53;58.46;99609.84;10353430;28;21174;-79
2022/12/31 19:27:00;;;;;;;1.42;0.80;;;;;;;14.40;58.15;99600.56;10356909;28;20132;-78
2022/12/31 19:32:03;;;;;;;6.68;1.98;;;;;;;14.49;57.41;99597.69;10364618;28;20132;-79
2022/12/31 19:37:11;;;;;;;3.22;1.13;;;;;;;14.46;57.38;99605.31;10345375;28;20049;-79
2022/12/31 19:42:15;;;;;;;5.15;1.15;;;;;;;14.34;56.88;99600.22;10367305;28;20523;-79
2022/12/31 19:47:18;;;;;;;2.15;1.67;;;;;;;14.50;55.49;99607.47;10375524;28;20072;-76
2022/12/31 19:52:22;;;;;;;6.05;1.58;;;;;;;14.71;54.88;99603.44;10391144;28;20132;-79
2022/12/31 19:57:25;;;;;;;3.95;1.60;;;;;;;14.60;54.38;99591.09;10355458;28;20077;-80
2022/12/31 20:02:27;;;;;;;2.78;1.08;;;;;;;14.49;54.19;99604.97;10369547;28;20083;-77
2022/12/31 20:07:32;;;;;;;4.78;1.50;;;;;;;14.71;53.05;99616.97;10361304;28;21161;-77
2022/12/31 20:12:35;;;;;;;2.67;1.45;;;;;;;14.38;53.44;99615.09;10358826;28;20077;-77
2022/12/31 20:17:45;;;;;;;4.45;1.45;;;;;;;14.59;52.47;99633.50;10394197;28;20118;-76
2022/12/31 20:22:50;;;;;;;2.90;1.48;;;;;;;14.53;52.40;99627.91;10368593;28;20053;-78
2022/12/31 20:27:54;;;;;;;7.57;1.48;;;;;;;14.43;52.05;99643.47;10376945;28;20083;-79
2022/12/31 20:32:57;;;;;;;3.75;1.50;;;;;;;14.44;52.22;99643.28;10345117;28;20119;-78
2022/12/31 20:38:01;;;;;;;2.75;1.80;;;;;;;14.62;51.55;99653.09;10362849;28;20437;-78
2022/12/31 20:43:04;;;;;;;5.78;2.10;;;;;;;14.77;51.75;99646.84;10342255;28;20181;-78
2022/12/31 20:48:06;;;;;;;6.30;1.70;;;;;;;14.50;51.93;99664.22;10351356;28;20128;-79
2022/12/31 20:53:13;;;;;;;6.13;1.40;;;;;;;14.41;51.87;99664.41;10370854;28;20057;-77
2022/12/31 20:58:16;;;;;;;5.90;1.65;;;;;;;14.42;51.44;99664.22;10333298;28;20136;-78
2022/12/31 21:03:19;;;;;;;8.30;1.55;;;;;;;14.62;51.21;99674.72;10368632;28;20049;-78
2022/12/31 21:08:44;;;;;;;5.88;1.67;;;;;;;14.54;50.99;99675.56;10355516;28;20211;-78
2022/12/31 21:13:47;;;;;;;8.80;3.08;;;;;;;14.66;50.68;99674.22;10369352;28;20060;-77
2022/12/31 21:18:50;;;;;;;6.57;2.00;;;;;;;14.65;50.20;99680.66;10384370;28;20132;-78
2022/12/31 21:23:54;;;;;;;7.40;1.75;;;;;;;14.49;50.13;99707.66;10392987;28;20046;-77
2022/12/31 21:28:57;;;;;;;5.85;1.75;;;;;;;14.60;50.12;99712.72;10368002;28;20048;-77
2022/12/31 21:34:00;;;;;;;7.95;2.22;;;;;;;14.49;49.69;99678.75;10349585;28;20042;-79
2022/12/31 21:39:04;;;;;;;4.82;1.80;;;;;;;14.77;49.50;99679.28;10372095;28;20105;-77
2022/12/31 21:44:07;;;;;;;10.05;2.78;;;;;;;14.48;49.74;99701.41;10380729;28;20061;-77
2022/12/31 21:49:10;;;;;;;17.15;2.65;;;;;;;14.64;49.43;99702.41;10349573;28;20056;-77
2022/12/31 21:56:07;;;;;;;9.32;3.10;;;;;;;14.66;49.11;99700.41;10362758;28;20114;-78
2022/12/31 22:05:17;;;;;;;4.13;1.65;;;;;;;14.75;48.84;99702.94;10356304;28;20156;-76
2022/12/31 22:10:28;;;;;;;6.57;2.10;;;;;;;14.49;49.75;99732.81;10373008;28;20049;-79
2022/12/31 22:15:37;;;;;;;7.20;1.95;;;;;;;14.80;48.86;99699.72;10370094;28;20122;-78
2022/12/31 22:20:40;;;;;;;6.47;1.70;;;;;;;14.58;49.42;99717.44;10366009;28;20048;-77
2022/12/31 22:25:44;;;;;;;10.48;2.38;;;;;;;14.75;49.01;99712.91;10344329;28;21243;-79
2022/12/31 22:30:47;;;;;;;16.63;2.78;;;;;;;14.40;49.35;99722.13;10366894;28;20053;-80
2022/12/31 22:35:58;;;;;;;7.20;2.25;;;;;;;14.53;49.44;99731.44;10363988;28;20050;-77
2022/12/31 22:41:04;;;;;;;7.22;2.22;;;;;;;14.69;48.70;99735.19;10363005;28;20150;-78
2022/12/31 22:46:09;;;;;;;3.85;1.67;;;;;;;14.34;49.57;99729.00;10351211;28;20060;-76
2022/12/31 22:51:14;;;;;;;6.68;1.88;;;;;;;14.44;49.45;99747.81;10375436;28;20059;-79
2022/12/31 22:56:18;;;;;;;7.28;2.28;;;;;;;14.56;49.35;99750.06;10349858;28;20140;-78
2022/12/31 23:01:23;;;;;;;12.43;3.10;;;;;;;14.58;49.30;99763.38;10364206;28;20084;-78
2022/12/31 23:06:27;;;;;;;14.05;7.03;;;;;;;14.58;49.00;99769.63;10376954;28;20045;-79
2022/12/31 23:11:33;;;;;;;15.82;7.63;;;;;;;14.76;48.59;99768.69;10361429;28;20573;-78
2022/12/31 23:27:18;;;;;;;14.68;7.45;;;;;;;14.67;49.01;99769.66;10371057;28;20071;-76
2022/12/31 23:32:21;;;;;;;19.60;8.80;;;;;;;14.71;48.83;99771.88;10372067;28;20081;-76
2022/12/31 23:37:24;;;;;;;21.83;8.23;;;;;;;14.75;48.31;99750.75;10372899;28;20565;-78
2022/12/31 23:42:28;;;;;;;17.42;9.05;;;;;;;14.68;48.49;99783.03;10349830;28;20046;-76
2022/12/31 23:47:32;;;;;;;23.08;9.57;;;;;;;14.75;48.76;99773.22;10367572;28;20046;-77
2022/12/31 23:52:35;;;;;;;22.65;6.50;;;;;;;14.56;48.80;99785.19;10373797;28;20049;-77
2022/12/31 23:57:39;;;;;;;11.43;5.88;;;;;;;14.94;48.81;99785.59;10380000;28;20037;-76
